createdAt,value
2023-11-23T00:02:22.616Z,8.20
2023-11-23T00:06:28.553Z,7.53
2023-11-23T00:10:34.123Z,8.33
2023-11-23T00:14:39.635Z,6.40
2023-11-23T00:18:45.239Z,7.73
2023-11-23T00:22:50.808Z,6.73
2023-11-23T00:26:56.554Z,7.13
2023-11-23T00:31:02.752Z,7.27
2023-11-23T00:35:09.256Z,7.60
2023-11-23T00:39:14.787Z,7.40
2023-11-23T00:43:20.252Z,6.60
2023-11-23T00:47:26.004Z,7.87
2023-11-23T00:51:33.654Z,7.40
2023-11-23T00:55:39.621Z,6.40
2023-11-23T00:59:45.215Z,5.47
2023-11-23T01:03:50.771Z,7.00
2023-11-23T01:16:10.228Z,6.30
2023-11-23T01:20:15.769Z,6.90
2023-11-23T01:24:21.244Z,7.47
2023-11-23T01:28:26.818Z,6.03
2023-11-23T01:32:33.774Z,7.37
2023-11-23T01:36:39.367Z,6.90
2023-11-23T01:40:44.892Z,6.20
2023-11-23T01:44:50.412Z,8.10
2023-11-23T01:48:57.572Z,6.67
2023-11-23T01:53:04.667Z,5.80
2023-11-23T01:57:11.486Z,7.13
2023-11-23T02:01:17.114Z,8.10
2023-11-23T02:05:25.857Z,6.70
2023-11-23T02:09:32.131Z,6.27
2023-11-23T02:13:38.597Z,7.53
2023-11-23T02:17:44.353Z,7.60
2023-11-23T02:21:50.714Z,6.33
2023-11-23T02:25:56.231Z,7.70
2023-11-23T02:30:01.745Z,7.27
2023-11-23T02:34:07.476Z,5.67
2023-11-23T02:38:13.013Z,7.13
2023-11-23T02:42:18.813Z,6.60
2023-11-23T02:46:24.463Z,7.27
2023-11-23T02:50:30.071Z,5.60
2023-11-23T02:54:35.610Z,6.10
2023-11-23T02:58:41.098Z,5.57
2023-11-23T03:02:46.650Z,5.47
2023-11-23T03:06:52.208Z,6.53
2023-11-23T03:10:57.721Z,5.80
2023-11-23T03:15:04.303Z,5.67
2023-11-23T03:19:10.072Z,6.07
2023-11-23T03:23:15.652Z,6.50
2023-11-23T03:27:21.199Z,5.53
2023-11-23T03:31:26.799Z,6.07
2023-11-23T03:35:32.352Z,6.10
2023-11-23T03:39:38.332Z,5.90
2023-11-23T03:43:43.805Z,7.03
2023-11-23T03:47:49.784Z,6.47
2023-11-23T03:51:55.314Z,4.90
2023-11-23T03:56:01.017Z,5.40
2023-11-23T04:00:07.972Z,5.57
2023-11-23T04:04:14.351Z,6.10
2023-11-23T04:08:23.189Z,5.87
2023-11-23T04:12:30.111Z,4.93
2023-11-23T04:16:35.610Z,6.40
2023-11-23T04:20:41.097Z,5.87
2023-11-23T04:24:48.957Z,5.13
2023-11-23T04:28:54.839Z,4.67
2023-11-23T04:33:01.055Z,5.40
2023-11-23T04:37:06.676Z,5.10
2023-11-23T04:41:13.501Z,4.93
2023-11-23T04:45:19.219Z,4.50
2023-11-23T04:49:24.736Z,4.90
2023-11-23T04:53:30.186Z,4.23
2023-11-23T04:57:35.732Z,4.17
2023-11-23T05:01:41.523Z,4.40
2023-11-23T05:05:47.051Z,4.90
2023-11-23T05:09:52.551Z,4.70
2023-11-23T05:14:06.792Z,4.50
2023-11-23T05:18:13.915Z,3.80
2023-11-23T05:22:19.522Z,4.23
2023-11-23T05:26:25.200Z,3.80
2023-11-23T05:30:30.782Z,3.57
2023-11-23T05:34:36.424Z,3.43
2023-11-23T05:38:41.956Z,3.23
2023-11-23T05:42:57.577Z,3.13
2023-11-23T05:47:08.500Z,3.00
2023-11-23T05:51:14.097Z,3.47
2023-11-23T05:55:19.724Z,2.60
2023-11-23T05:59:25.273Z,2.90
2023-11-23T06:03:32.384Z,3.37
2023-11-23T06:07:38.289Z,2.63
2023-11-23T06:11:44.887Z,3.10
2023-11-23T06:15:51.912Z,2.90
2023-11-23T06:19:57.500Z,2.60
2023-11-23T06:24:05.099Z,4.03
2023-11-23T06:28:15.317Z,3.23
2023-11-23T06:32:21.701Z,3.07
2023-11-23T06:36:27.387Z,3.03
2023-11-23T06:40:35.709Z,3.00
2023-11-23T06:44:41.266Z,3.30
2023-11-23T06:48:47.464Z,2.80
2023-11-23T06:52:52.984Z,2.97
2023-11-23T06:56:58.595Z,2.50
2023-11-23T07:01:04.389Z,3.07
2023-11-23T07:05:11.682Z,2.90
2023-11-23T07:09:18.301Z,2.97
2023-11-23T07:13:24.062Z,3.40
2023-11-23T07:17:29.608Z,2.10
2023-11-23T07:21:35.206Z,2.73
2023-11-23T07:25:44.779Z,3.03
2023-11-23T07:29:51.063Z,3.50
2023-11-23T07:33:56.782Z,3.43
2023-11-23T07:38:04.271Z,3.50
2023-11-23T07:42:09.778Z,3.77
2023-11-23T07:46:16.640Z,3.30
2023-11-23T07:50:22.180Z,2.73
2023-11-23T07:54:27.815Z,3.40
2023-11-23T07:58:33.316Z,3.87
2023-11-23T08:02:38.800Z,2.73
2023-11-23T08:06:44.359Z,2.40
2023-11-23T08:10:50.135Z,4.23
2023-11-23T08:14:55.699Z,4.00
2023-11-23T08:19:01.820Z,3.10
2023-11-23T08:23:08.949Z,2.60
2023-11-23T08:27:14.595Z,3.27
2023-11-23T08:31:20.547Z,3.17
2023-11-23T08:35:26.280Z,3.07
2023-11-23T08:39:31.839Z,3.00
2023-11-23T08:43:38.354Z,3.10
2023-11-23T08:47:44.075Z,2.70
2023-11-23T08:51:49.614Z,2.70
2023-11-23T08:55:55.684Z,3.20
2023-11-23T09:00:02.389Z,3.20
2023-11-23T09:04:08.089Z,2.83
2023-11-23T09:08:14.998Z,3.00
2023-11-23T09:12:20.552Z,3.07
2023-11-23T09:16:27.799Z,2.70
2023-11-23T09:20:33.943Z,3.20
2023-11-23T09:24:40.489Z,2.70
2023-11-23T09:28:46.144Z,3.20
2023-11-23T09:32:51.682Z,4.40
2023-11-23T09:36:57.218Z,3.40
2023-11-23T09:41:08.062Z,2.90
2023-11-23T09:45:20.017Z,2.90
2023-11-23T09:49:27.024Z,3.00
2023-11-23T09:53:33.394Z,3.30
2023-11-23T09:57:39.520Z,2.63
2023-11-23T10:01:45.740Z,2.80
2023-11-23T10:05:52.286Z,2.80
2023-11-23T10:09:57.805Z,2.80
2023-11-23T10:14:04.072Z,2.80
2023-11-23T10:18:09.750Z,2.63
2023-11-23T10:22:16.400Z,2.20
2023-11-23T10:26:22.080Z,2.90
2023-11-23T10:30:31.322Z,3.40
2023-11-23T10:34:41.989Z,3.37
2023-11-23T10:38:48.095Z,2.30
2023-11-23T10:42:54.068Z,3.57
2023-11-23T10:47:05.056Z,2.30
2023-11-23T10:51:11.101Z,3.57
2023-11-23T10:55:16.686Z,2.83
2023-11-23T10:59:23.718Z,3.60
2023-11-23T11:03:30.504Z,3.20
2023-11-23T11:07:37.115Z,3.00
2023-11-23T11:11:54.312Z,2.90
2023-11-23T11:16:07.940Z,3.90
2023-11-23T11:20:23.434Z,3.30
2023-11-23T11:24:29.077Z,3.47
2023-11-23T11:28:34.857Z,3.23
2023-11-23T11:32:42.145Z,4.53
2023-11-23T11:37:04.288Z,3.10
2023-11-23T11:41:11.029Z,3.30
2023-11-23T11:45:19.071Z,3.00
2023-11-23T11:49:28.543Z,2.73
2023-11-23T11:53:34.187Z,2.73
2023-11-23T11:57:41.113Z,3.37
2023-11-23T12:01:48.414Z,3.27
2023-11-23T12:05:55.329Z,3.50
2023-11-23T12:10:01.065Z,2.30
2023-11-23T12:14:09.568Z,4.10
2023-11-23T12:18:32.463Z,3.77
2023-11-23T12:22:38.046Z,3.70
2023-11-23T12:26:47.741Z,2.73
2023-11-23T12:30:53.365Z,3.50
2023-11-23T12:34:58.934Z,2.27
2023-11-23T12:39:05.480Z,3.10
2023-11-23T12:43:11.819Z,3.30
2023-11-23T12:47:17.747Z,3.50
2023-11-23T12:51:23.423Z,3.17
2023-11-23T12:55:28.976Z,3.17
2023-11-23T12:59:34.476Z,2.90
2023-11-23T13:03:40.078Z,2.47
2023-11-23T13:07:46.789Z,2.33
2023-11-23T13:11:52.423Z,2.47
2023-11-23T13:15:58.636Z,2.80
2023-11-23T13:20:10.375Z,2.40
2023-11-23T13:24:16.614Z,1.70
2023-11-23T13:28:22.362Z,2.20
2023-11-23T13:32:28.047Z,1.70
2023-11-23T13:36:35.921Z,1.80
2023-11-23T13:40:42.205Z,1.40
2023-11-23T13:44:47.956Z,1.80
2023-11-23T13:48:53.766Z,1.77
2023-11-23T13:52:59.363Z,1.70
2023-11-23T13:57:08.574Z,1.80
2023-11-23T14:01:16.441Z,1.40
2023-11-23T14:05:22.069Z,1.30
2023-11-23T14:09:31.836Z,2.10
2023-11-23T14:13:37.950Z,1.80
2023-11-23T14:17:43.493Z,3.07
2023-11-23T14:21:51.163Z,2.10
2023-11-23T14:25:57.669Z,1.90
2023-11-23T14:30:04.247Z,2.47
2023-11-23T14:34:09.894Z,2.00
2023-11-23T14:38:17.115Z,1.80
2023-11-23T14:54:40.539Z,2.40
2023-11-23T14:58:46.742Z,1.33
2023-11-23T15:02:53.822Z,1.60
2023-11-23T15:06:59.363Z,2.60
2023-11-23T15:11:05.212Z,1.87
2023-11-23T15:15:13.792Z,1.60
2023-11-23T15:31:40.433Z,1.50
2023-11-23T15:35:47.070Z,1.57
2023-11-23T15:39:52.676Z,1.37
2023-11-23T15:43:58.228Z,1.40
2023-11-23T15:48:04.206Z,2.67
2023-11-23T15:52:09.723Z,2.23
2023-11-23T15:56:17.539Z,0.70
2023-11-23T16:00:25.584Z,1.10
2023-11-23T16:04:31.724Z,0.90
2023-11-23T16:08:39.025Z,1.30
2023-11-23T16:12:45.499Z,1.10
2023-11-23T16:16:51.101Z,1.17
2023-11-23T16:20:58.920Z,0.73
2023-11-23T16:25:07.962Z,1.10
2023-11-23T16:29:13.748Z,1.03
2023-11-23T16:33:19.384Z,1.40
2023-11-23T16:37:25.442Z,1.03
2023-11-23T16:41:31.608Z,1.57
2023-11-23T16:45:37.903Z,1.77
2023-11-23T16:49:47.609Z,1.40
2023-11-23T17:18:30.477Z,1.97
2023-11-23T17:22:37.642Z,1.73
2023-11-23T17:26:43.784Z,1.80
2023-11-23T17:30:49.580Z,2.57
2023-11-23T17:34:55.200Z,2.73
2023-11-23T17:39:03.623Z,2.67
2023-11-23T17:43:09.596Z,2.90
2023-11-23T17:47:15.262Z,2.23
2023-11-23T17:51:20.840Z,2.53
2023-11-23T17:55:26.722Z,3.10
2023-11-23T17:59:43.731Z,3.00
2023-11-23T18:03:53.614Z,2.20
2023-11-23T18:07:59.226Z,2.40
2023-11-23T18:12:09.349Z,2.83
2023-11-23T18:16:14.852Z,2.93
2023-11-23T18:20:22.925Z,3.37
2023-11-23T18:24:29.577Z,3.60
2023-11-23T18:28:35.095Z,3.87
2023-11-23T18:32:42.285Z,3.17
2023-11-23T18:36:47.904Z,3.90
2023-11-23T18:40:53.952Z,3.93
2023-11-23T18:44:59.426Z,3.30
2023-11-23T18:49:05.900Z,3.20
2023-11-23T18:53:11.544Z,3.57
2023-11-23T18:57:17.157Z,3.90
2023-11-23T19:01:22.982Z,3.60
2023-11-23T19:05:28.538Z,3.40
2023-11-23T19:09:35.247Z,2.47
2023-11-23T19:13:41.687Z,3.00
2023-11-23T19:17:47.921Z,3.40
2023-11-23T19:21:53.859Z,1.93
2023-11-23T19:25:59.929Z,3.40
2023-11-23T19:30:09.666Z,3.40
2023-11-23T19:34:18.323Z,2.40
2023-11-23T19:38:24.287Z,2.23
2023-11-23T19:42:34.917Z,2.77
2023-11-23T19:46:40.942Z,2.13
2023-11-23T19:50:46.994Z,3.03
2023-11-23T19:54:52.978Z,2.03
2023-11-23T19:58:58.599Z,2.67
2023-11-23T20:03:05.115Z,2.30
2023-11-23T20:07:13.336Z,2.03
2023-11-23T20:11:19.163Z,4.77
2023-11-23T20:15:24.731Z,1.97
2023-11-23T20:19:30.295Z,1.87
2023-11-23T20:23:35.769Z,2.30
2023-11-23T20:27:42.365Z,2.23
2023-11-23T20:31:47.959Z,3.20
2023-11-23T20:35:53.827Z,2.40
2023-11-23T20:39:59.453Z,2.60
2023-11-23T20:44:05.372Z,2.27
2023-11-23T20:48:10.993Z,3.17
2023-11-23T20:52:17.164Z,3.63
2023-11-23T20:56:23.045Z,2.73
2023-11-23T21:00:28.993Z,3.00
2023-11-23T21:04:35.273Z,2.60
2023-11-23T21:08:41.909Z,2.57
2023-11-23T21:12:47.436Z,2.50
2023-11-23T21:16:53.108Z,2.23
2023-11-23T21:20:58.594Z,2.30
2023-11-23T21:25:04.528Z,2.23
2023-11-23T21:29:12.983Z,2.13
2023-11-23T21:33:19.083Z,2.27
2023-11-23T21:37:24.673Z,3.00
2023-11-23T21:41:30.608Z,2.40
2023-11-23T21:45:37.647Z,2.30
2023-11-23T21:49:44.367Z,6.97
2023-11-23T21:53:50.545Z,2.90
2023-11-23T21:57:58.572Z,2.70
2023-11-23T22:02:05.935Z,1.93
2023-11-23T22:06:11.660Z,3.07
2023-11-23T22:10:18.101Z,2.20
2023-11-23T22:14:24.656Z,1.73
2023-11-23T22:18:30.579Z,2.70
2023-11-23T22:22:37.114Z,2.50
2023-11-23T22:26:43.804Z,2.33
2023-11-23T22:30:50.225Z,2.57
2023-11-23T22:43:08.035Z,2.20
2023-11-23T22:47:13.578Z,2.27
2023-11-23T22:51:19.777Z,2.57
2023-11-23T22:55:25.284Z,1.40
2023-11-23T23:40:50.572Z,2.17
2023-11-23T23:44:57.293Z,1.80
2023-11-23T23:49:03.470Z,1.97
2023-11-23T23:53:09.209Z,2.20
